sensor_id;sensor_type;location;lat;lon;timestamp;P1;durP1;ratioP1;P2;durP2;ratioP2
14021;SDS011;7086;48.116;11.580;2022-09-28T00:02:34;0.60;;;0.60;;
14021;SDS011;7086;48.116;11.580;2022-09-28T00:05:09;0.50;;;0.50;;
14021;SDS011;7086;48.116;11.580;2022-09-28T00:07:41;0.60;;;0.60;;
14021;SDS011;7086;48.116;11.580;2022-09-28T00:10:17;0.73;;;0.70;;
14021;SDS011;7086;48.116;11.580;2022-09-28T00:12:51;0.73;;;0.60;;
14021;SDS011;7086;48.116;11.580;2022-09-28T00:15:24;0.40;;;0.40;;
14021;SDS011;7086;48.116;11.580;2022-09-28T00:17:55;0.98;;;0.60;;
14021;SDS011;7086;48.116;11.580;2022-09-28T00:20:59;0.50;;;0.50;;
14021;SDS011;7086;48.116;11.580;2022-09-28T00:24:10;0.77;;;0.77;;
14021;SDS011;7086;48.116;11.580;2022-09-28T00:27:25;0.60;;;0.60;;
14021;SDS011;7086;48.116;11.580;2022-09-28T00:30:20;0.63;;;0.63;;
14021;SDS011;7086;48.116;11.580;2022-09-28T00:32:58;1.38;;;0.60;;
14021;SDS011;7086;48.116;11.580;2022-09-28T00:35:33;0.80;;;0.80;;
14021;SDS011;7086;48.116;11.580;2022-09-28T00:38:39;1.25;;;0.70;;
14021;SDS011;7086;48.116;11.580;2022-09-28T00:41:34;0.55;;;0.55;;
14021;SDS011;7086;48.116;11.580;2022-09-28T00:44:41;0.50;;;0.50;;
14021;SDS011;7086;48.116;11.580;2022-09-28T00:47:56;0.82;;;0.60;;
14021;SDS011;7086;48.116;11.580;2022-09-28T00:50:46;0.50;;;0.50;;
14021;SDS011;7086;48.116;11.580;2022-09-28T00:53:43;0.50;;;0.50;;
14021;SDS011;7086;48.116;11.580;2022-09-28T00:56:45;0.50;;;0.50;;
14021;SDS011;7086;48.116;11.580;2022-09-28T01:00:15;0.47;;;0.47;;
14021;SDS011;7086;48.116;11.580;2022-09-28T01:02:46;0.40;;;0.40;;
14021;SDS011;7086;48.116;11.580;2022-09-28T01:05:15;0.50;;;0.50;;
14021;SDS011;7086;48.116;11.580;2022-09-28T01:07:46;0.43;;;0.43;;
14021;SDS011;7086;48.116;11.580;2022-09-28T01:10:14;1.58;;;0.50;;
14021;SDS011;7086;48.116;11.580;2022-09-28T01:12:42;0.60;;;0.60;;
14021;SDS011;7086;48.116;11.580;2022-09-28T01:15:17;0.52;;;0.52;;
14021;SDS011;7086;48.116;11.580;2022-09-28T01:17:50;2.38;;;0.60;;
14021;SDS011;7086;48.116;11.580;2022-09-28T01:20:37;0.52;;;0.52;;
14021;SDS011;7086;48.116;11.580;2022-09-28T01:26:42;0.77;;;0.63;;
14021;SDS011;7086;48.116;11.580;2022-09-28T01:29:42;0.60;;;0.60;;
14021;SDS011;7086;48.116;11.580;2022-09-28T01:32:22;2.20;;;0.75;;
14021;SDS011;7086;48.116;11.580;2022-09-28T01:35:07;0.63;;;0.63;;
14021;SDS011;7086;48.116;11.580;2022-09-28T01:37:41;0.55;;;0.55;;
14021;SDS011;7086;48.116;11.580;2022-09-28T01:40:16;0.57;;;0.52;;
14021;SDS011;7086;48.116;11.580;2022-09-28T01:42:48;0.50;;;0.50;;
14021;SDS011;7086;48.116;11.580;2022-09-28T01:45:21;0.65;;;0.50;;
14021;SDS011;7086;48.116;11.580;2022-09-28T01:47:55;0.60;;;0.60;;
14021;SDS011;7086;48.116;11.580;2022-09-28T01:50:28;2.05;;;0.70;;
14021;SDS011;7086;48.116;11.580;2022-09-28T01:53:02;0.85;;;0.85;;
14021;SDS011;7086;48.116;11.580;2022-09-28T01:55:38;0.73;;;0.73;;
14021;SDS011;7086;48.116;11.580;2022-09-28T01:58:13;0.80;;;0.80;;
14021;SDS011;7086;48.116;11.580;2022-09-28T02:00:50;0.75;;;0.73;;
14021;SDS011;7086;48.116;11.580;2022-09-28T02:03:28;0.63;;;0.50;;
14021;SDS011;7086;48.116;11.580;2022-09-28T02:06:06;1.20;;;0.60;;
14021;SDS011;7086;48.116;11.580;2022-09-28T02:08:42;1.42;;;0.60;;
14021;SDS011;7086;48.116;11.580;2022-09-28T02:11:16;1.23;;;0.80;;
14021;SDS011;7086;48.116;11.580;2022-09-28T02:13:48;0.52;;;0.50;;
14021;SDS011;7086;48.116;11.580;2022-09-28T02:16:24;0.80;;;0.77;;
14021;SDS011;7086;48.116;11.580;2022-09-28T02:19:00;0.70;;;0.70;;
14021;SDS011;7086;48.116;11.580;2022-09-28T02:21:30;0.50;;;0.50;;
14021;SDS011;7086;48.116;11.580;2022-09-28T02:24:08;0.60;;;0.60;;
14021;SDS011;7086;48.116;11.580;2022-09-28T02:26:43;1.77;;;0.65;;
14021;SDS011;7086;48.116;11.580;2022-09-28T02:29:16;0.55;;;0.55;;
14021;SDS011;7086;48.116;11.580;2022-09-28T02:31:44;0.60;;;0.60;;
14021;SDS011;7086;48.116;11.580;2022-09-28T02:34:11;0.50;;;0.50;;
14021;SDS011;7086;48.116;11.580;2022-09-28T02:36:38;0.80;;;0.57;;
14021;SDS011;7086;48.116;11.580;2022-09-28T02:39:11;0.60;;;0.60;;
14021;SDS011;7086;48.116;11.580;2022-09-28T02:41:45;1.38;;;1.08;;
14021;SDS011;7086;48.116;11.580;2022-09-28T02:47:25;1.40;;;0.50;;
14021;SDS011;7086;48.116;11.580;2022-09-28T02:50:10;0.50;;;0.50;;
14021;SDS011;7086;48.116;11.580;2022-09-28T02:52:55;2.63;;;0.60;;
14021;SDS011;7086;48.116;11.580;2022-09-28T02:55:44;0.63;;;0.63;;
14021;SDS011;7086;48.116;11.580;2022-09-28T02:58:33;0.80;;;0.80;;
14021;SDS011;7086;48.116;11.580;2022-09-28T03:01:14;0.60;;;0.60;;
14021;SDS011;7086;48.116;11.580;2022-09-28T03:03:52;2.28;;;1.30;;
14021;SDS011;7086;48.116;11.580;2022-09-28T03:06:28;1.13;;;1.05;;
14021;SDS011;7086;48.116;11.580;2022-09-28T03:09:03;3.03;;;2.15;;
14021;SDS011;7086;48.116;11.580;2022-09-28T03:11:39;1.75;;;1.65;;
14021;SDS011;7086;48.116;11.580;2022-09-28T03:14:13;1.85;;;1.73;;
14021;SDS011;7086;48.116;11.580;2022-09-28T03:16:43;1.13;;;1.13;;
14021;SDS011;7086;48.116;11.580;2022-09-28T03:19:12;3.42;;;1.58;;
14021;SDS011;7086;48.116;11.580;2022-09-28T03:21:41;0.95;;;0.95;;
14021;SDS011;7086;48.116;11.580;2022-09-28T03:24:08;0.85;;;0.85;;
14021;SDS011;7086;48.116;11.580;2022-09-28T03:26:37;3.20;;;1.70;;
14021;SDS011;7086;48.116;11.580;2022-09-28T03:29:05;2.05;;;1.85;;
14021;SDS011;7086;48.116;11.580;2022-09-28T03:31:32;1.40;;;1.30;;
14021;SDS011;7086;48.116;11.580;2022-09-28T03:34:01;1.92;;;1.38;;
14021;SDS011;7086;48.116;11.580;2022-09-28T03:36:29;1.00;;;1.00;;
14021;SDS011;7086;48.116;11.580;2022-09-28T03:38:57;1.17;;;1.08;;
14021;SDS011;7086;48.116;11.580;2022-09-28T03:41:24;0.90;;;0.90;;
14021;SDS011;7086;48.116;11.580;2022-09-28T03:43:52;1.40;;;1.25;;
14021;SDS011;7086;48.116;11.580;2022-09-28T03:46:20;2.88;;;2.50;;
14021;SDS011;7086;48.116;11.580;2022-09-28T03:48:48;1.75;;;1.65;;
14021;SDS011;7086;48.116;11.580;2022-09-28T03:51:17;2.15;;;1.95;;
14021;SDS011;7086;48.116;11.580;2022-09-28T03:53:45;1.73;;;1.63;;
14021;SDS011;7086;48.116;11.580;2022-09-28T03:56:13;3.47;;;2.58;;
14021;SDS011;7086;48.116;11.580;2022-09-28T03:58:41;3.63;;;2.20;;
14021;SDS011;7086;48.116;11.580;2022-09-28T04:01:09;1.75;;;1.63;;
14021;SDS011;7086;48.116;11.580;2022-09-28T04:03:40;1.40;;;1.27;;
14021;SDS011;7086;48.116;11.580;2022-09-28T04:06:09;1.63;;;1.48;;
14021;SDS011;7086;48.116;11.580;2022-09-28T04:08:45;1.33;;;1.23;;
14021;SDS011;7086;48.116;11.580;2022-09-28T04:11:15;1.10;;;1.00;;
14021;SDS011;7086;48.116;11.580;2022-09-28T04:13:46;1.35;;;1.25;;
14021;SDS011;7086;48.116;11.580;2022-09-28T04:16:14;1.10;;;1.10;;
14021;SDS011;7086;48.116;11.580;2022-09-28T04:18:43;1.63;;;1.52;;
14021;SDS011;7086;48.116;11.580;2022-09-28T04:21:12;2.95;;;1.23;;
14021;SDS011;7086;48.116;11.580;2022-09-28T04:23:44;1.15;;;1.08;;
14021;SDS011;7086;48.116;11.580;2022-09-28T04:26:14;1.25;;;1.17;;
14021;SDS011;7086;48.116;11.580;2022-09-28T04:28:45;4.13;;;2.80;;
14021;SDS011;7086;48.116;11.580;2022-09-28T04:31:41;1.05;;;1.05;;
14021;SDS011;7086;48.116;11.580;2022-09-28T04:34:12;2.75;;;1.55;;
14021;SDS011;7086;48.116;11.580;2022-09-28T04:36:42;2.67;;;2.42;;
14021;SDS011;7086;48.116;11.580;2022-09-28T04:39:15;4.35;;;3.58;;
14021;SDS011;7086;48.116;11.580;2022-09-28T04:41:57;2.33;;;2.22;;
14021;SDS011;7086;48.116;11.580;2022-09-28T04:44:25;2.22;;;0.73;;
14021;SDS011;7086;48.116;11.580;2022-09-28T04:47:06;0.80;;;0.80;;
14021;SDS011;7086;48.116;11.580;2022-09-28T04:49:51;0.77;;;0.77;;
14021;SDS011;7086;48.116;11.580;2022-09-28T04:52:34;0.80;;;0.80;;
14021;SDS011;7086;48.116;11.580;2022-09-28T04:55:19;0.60;;;0.60;;
14021;SDS011;7086;48.116;11.580;2022-09-28T04:58:02;1.08;;;0.98;;
14021;SDS011;7086;48.116;11.580;2022-09-28T05:00:44;2.40;;;0.80;;
14021;SDS011;7086;48.116;11.580;2022-09-28T05:03:26;0.60;;;0.60;;
14021;SDS011;7086;48.116;11.580;2022-09-28T05:06:08;1.00;;;0.80;;
14021;SDS011;7086;48.116;11.580;2022-09-28T05:08:53;0.70;;;0.70;;
14021;SDS011;7086;48.116;11.580;2022-09-28T05:18:00;1.50;;;0.75;;
14021;SDS011;7086;48.116;11.580;2022-09-28T05:29:06;2.08;;;0.80;;
